Longmeadow, Massachusetts
Current Conditions -  °F | °C
As of 12:51 AM on Thursday 23 Oct 2014 (Local Time) from KBDL Reporting Station
Light Rain Light Rain  
Wind Chill: 50°   Ceiling: 1300
Heat Index: 50°   Visibility: 10mi
Dew Point: 46°   Wind: 16mph
Humidity: 86%   Direction: 360°N
Pressure: 29.78"   Gusts: 24mph
Location:  42.05°N, 72.58°W
Report Text: KBDL 230451Z 36014G21KT 10SM -RA SCT010 BKN013 OVC025 10/08 A2978 RMK AO2 SLP086 P0005 T01000078 401330100
Loading
Personal Weather Stations






























Interactive Weather Map
Tropical Storm Tracking
New forecast layout! Learn more

10-Day Weather Forecast

Advertisements
Track Severe Weather on mobile